Plain City, Utah
Current Conditions -  °F | °C
As of 11:53 AM on Monday 20 Oct 2014 (Local Time) from KOGD Reporting Station
Clear Clear  
Wind Chill: 69°   Ceiling: Unl
Heat Index: 69°   Visibility: 10mi
Dew Point: 35°   Wind: 0mph
Humidity: 29%   Direction: NA
Pressure: 30.05"   Gusts: NA
Location:  41.2701°N, 112.135°W
Report Text: KOGD 201753Z 00000KT 10SM CLR 21/02 A3005 RMK AO2 SLP137 T02060017 10206 20094 58000
Loading
Personal Weather Stations






























Interactive Weather Map
Tropical Storm Tracking
New forecast layout! Learn more

10-Day Weather Forecast

Advertisements
Track Severe Weather on mobile